Time;durP1;ratioP1;P1;durP2;ratioP2;P2;SDS_P1;SDS_P2;PMS_P1;PMS_P2;Temp;Humidity;BMP_temperature;BMP_pressure;BME280_temperature;BME280_humidity;BME280_pressure;Samples;Min_cycle;Max_cycle;Signal;HPM_P1;HPM_P2
2020/12/10 00:01:02;;;;;;;3.60;3.30;;;;;;;18.62;47.32;99756.92;;;;-58
2020/12/10 00:04:02;;;;;;;3.33;3.01;;;;;;;18.59;47.32;99751.81;;;;-58
2020/12/10 00:07:02;;;;;;;3.19;2.89;;;;;;;18.57;47.30;99749.27;;;;-58
2020/12/10 00:10:02;;;;;;;3.33;3.03;;;;;;;18.56;47.41;99752.94;;;;-58
2020/12/10 00:13:02;;;;;;;3.26;2.99;;;;;;;18.54;47.39;99748.31;;;;-58
2020/12/10 00:16:02;;;;;;;3.17;2.97;;;;;;;18.53;47.37;99745.95;;;;-55
2020/12/10 00:19:02;;;;;;;3.02;2.81;;;;;;;18.50;47.40;99745.06;;;;-55
2020/12/10 00:22:02;;;;;;;3.22;2.87;;;;;;;18.49;47.42;99741.84;;;;-53
2020/12/10 00:25:02;;;;;;;3.19;2.91;;;;;;;18.48;47.37;99740.05;;;;-55
2020/12/10 00:28:02;;;;;;;3.50;3.13;;;;;;;18.46;47.38;99734.60;;;;-55
2020/12/10 00:31:02;;;;;;;3.15;2.87;;;;;;;18.43;47.47;99729.42;;;;-55
2020/12/10 00:34:02;;;;;;;3.29;2.99;;;;;;;18.43;47.43;99725.13;;;;-52
2020/12/10 00:37:02;;;;;;;3.25;2.95;;;;;;;18.41;47.39;99723.02;;;;-52
2020/12/10 00:40:02;;;;;;;3.01;2.81;;;;;;;18.40;47.42;99717.17;;;;-52
2020/12/10 00:43:02;;;;;;;3.09;2.79;;;;;;;18.38;47.44;99717.01;;;;-55
2020/12/10 00:46:02;;;;;;;3.13;2.84;;;;;;;18.37;47.49;99718.65;;;;-55
2020/12/10 00:49:02;;;;;;;3.15;2.89;;;;;;;18.35;47.49;99715.08;;;;-55
2020/12/10 00:52:02;;;;;;;3.10;2.83;;;;;;;18.33;47.48;99714.91;;;;-55
2020/12/10 00:55:02;;;;;;;3.21;2.87;;;;;;;18.32;47.52;99710.77;;;;-52
2020/12/10 00:58:02;;;;;;;3.17;2.79;;;;;;;18.31;47.52;99711.68;;;;-52
2020/12/10 01:01:02;;;;;;;3.07;2.79;;;;;;;18.30;47.50;99707.86;;;;-52
2020/12/10 01:04:02;;;;;;;3.03;2.73;;;;;;;18.27;47.50;99702.42;;;;-53
2020/12/10 01:07:02;;;;;;;3.10;2.84;;;;;;;18.26;47.57;99701.47;;;;-54
2020/12/10 01:10:02;;;;;;;3.18;2.88;;;;;;;18.25;47.52;99701.47;;;;-55
2020/12/10 01:13:02;;;;;;;3.06;2.79;;;;;;;18.23;47.45;99699.59;;;;-58
2020/12/10 01:16:02;;;;;;;3.08;2.78;;;;;;;18.22;47.48;99692.93;;;;-58
2020/12/10 01:19:02;;;;;;;3.00;2.80;;;;;;;18.21;47.53;99692.54;;;;-58
2020/12/10 01:22:02;;;;;;;2.98;2.69;;;;;;;18.19;47.49;99694.89;;;;-52
2020/12/10 01:25:02;;;;;;;2.97;2.77;;;;;;;18.17;47.55;99692.54;;;;-52
2020/12/10 01:28:02;;;;;;;2.91;2.71;;;;;;;18.16;47.63;99691.31;;;;-54
2020/12/10 01:31:02;;;;;;;2.90;2.69;;;;;;;18.16;47.45;99688.39;;;;-55
2020/12/10 01:34:02;;;;;;;2.93;2.72;;;;;;;18.14;47.54;99687.53;;;;-52
2020/12/10 01:37:02;;;;;;;2.90;2.70;;;;;;;18.12;47.50;99689.16;;;;-58
2020/12/10 01:40:02;;;;;;;3.06;2.84;;;;;;;18.10;47.48;99689.47;;;;-58
2020/12/10 01:43:02;;;;;;;2.90;2.70;;;;;;;18.10;47.45;99690.86;;;;-58
2020/12/10 01:46:02;;;;;;;2.89;2.69;;;;;;;18.08;47.54;99689.47;;;;-52
2020/12/10 01:49:02;;;;;;;2.82;2.62;;;;;;;18.06;47.43;99687.92;;;;-52
2020/12/10 01:52:02;;;;;;;2.89;2.69;;;;;;;18.06;47.49;99686.56;;;;-52
2020/12/10 01:55:02;;;;;;;2.91;2.70;;;;;;;18.04;47.50;99685.17;;;;-52
2020/12/10 01:58:02;;;;;;;2.80;2.60;;;;;;;18.03;47.42;99683.08;;;;-52
2020/12/10 02:01:02;;;;;;;2.96;2.69;;;;;;;18.02;47.47;99681.84;;;;-53
2020/12/10 02:04:02;;;;;;;2.99;2.79;;;;;;;18.01;47.53;99680.37;;;;-52
2020/12/10 02:07:02;;;;;;;3.02;2.81;;;;;;;18.00;47.48;99679.83;;;;-52
2020/12/10 02:10:02;;;;;;;2.95;2.75;;;;;;;17.99;47.48;99676.89;;;;-52
2020/12/10 02:13:02;;;;;;;2.83;2.59;;;;;;;17.97;47.56;99678.28;;;;-52
2020/12/10 02:16:02;;;;;;;2.91;2.62;;;;;;;17.96;47.55;99674.30;;;;-53
2020/12/10 02:19:02;;;;;;;2.84;2.64;;;;;;;17.96;47.58;99666.77;;;;-52
2020/12/10 02:22:02;;;;;;;2.62;2.42;;;;;;;17.95;47.66;99670.27;;;;-53
2020/12/10 02:25:02;;;;;;;2.81;2.61;;;;;;;17.95;47.50;99665.05;;;;-52
2020/12/10 02:28:02;;;;;;;2.55;2.35;;;;;;;17.93;47.58;99661.92;;;;-52
2020/12/10 02:31:02;;;;;;;2.89;2.69;;;;;;;17.92;47.61;99657.45;;;;-55
2020/12/10 02:34:02;;;;;;;2.61;2.41;;;;;;;17.91;47.51;99659.41;;;;-58
2020/12/10 02:37:02;;;;;;;2.87;2.63;;;;;;;17.91;47.59;99658.41;;;;-58
2020/12/10 02:40:02;;;;;;;2.69;2.49;;;;;;;17.90;47.58;99658.58;;;;-58
2020/12/10 02:43:02;;;;;;;2.77;2.57;;;;;;;17.88;47.55;99650.71;;;;-58
2020/12/10 02:46:02;;;;;;;2.75;2.55;;;;;;;17.88;47.54;99642.62;;;;-55
2020/12/10 02:49:02;;;;;;;2.79;2.59;;;;;;;17.87;47.53;99634.05;;;;-55
2020/12/10 02:52:02;;;;;;;2.72;2.52;;;;;;;17.85;47.63;99624.70;;;;-55
2020/12/10 02:55:02;;;;;;;2.79;2.59;;;;;;;17.84;47.56;99625.42;;;;-58
2020/12/10 02:58:02;;;;;;;2.80;2.60;;;;;;;17.83;47.57;99619.13;;;;-52
2020/12/10 03:01:02;;;;;;;2.71;2.51;;;;;;;17.83;47.61;99618.80;;;;-52
2020/12/10 03:04:02;;;;;;;2.86;2.61;;;;;;;17.82;47.63;99616.81;;;;-52
2020/12/10 03:07:02;;;;;;;2.86;2.66;;;;;;;17.80;47.53;99619.56;;;;-57
2020/12/10 03:10:02;;;;;;;2.67;2.47;;;;;;;17.79;47.56;99610.66;;;;-55
2020/12/10 03:13:02;;;;;;;2.70;2.50;;;;;;;17.80;47.67;99616.48;;;;-52
2020/12/10 03:16:02;;;;;;;2.91;2.71;;;;;;;17.79;47.52;99614.31;;;;-52
2020/12/10 03:19:02;;;;;;;2.90;2.70;;;;;;;17.78;47.49;99614.54;;;;-52
2020/12/10 03:22:02;;;;;;;2.60;2.40;;;;;;;17.76;47.49;99611.80;;;;-53
2020/12/10 03:25:02;;;;;;;2.80;2.60;;;;;;;17.76;47.58;99606.20;;;;-52
2020/12/10 03:28:02;;;;;;;2.71;2.51;;;;;;;17.76;47.56;99605.30;;;;-52
2020/12/10 03:31:02;;;;;;;2.76;2.56;;;;;;;17.74;47.64;99598.73;;;;-52
2020/12/10 03:34:02;;;;;;;2.68;2.48;;;;;;;17.72;47.71;99597.69;;;;-52
2020/12/10 03:37:02;;;;;;;2.68;2.48;;;;;;;17.72;47.72;99595.11;;;;-54
2020/12/10 03:40:02;;;;;;;2.68;2.48;;;;;;;17.71;47.55;99591.38;;;;-54
2020/12/10 03:43:02;;;;;;;2.80;2.60;;;;;;;17.70;47.54;99587.50;;;;-52
2020/12/10 03:46:02;;;;;;;2.72;2.52;;;;;;;17.69;47.60;99583.11;;;;-58
2020/12/10 03:49:02;;;;;;;2.75;2.55;;;;;;;17.69;47.60;99583.12;;;;-57
2020/12/10 03:52:02;;;;;;;2.57;2.37;;;;;;;17.67;47.50;99574.93;;;;-57
2020/12/10 03:55:02;;;;;;;2.81;2.61;;;;;;;17.66;47.65;99569.27;;;;-52
2020/12/10 03:58:02;;;;;;;2.73;2.53;;;;;;;17.65;47.62;99559.20;;;;-52
2020/12/10 04:01:02;;;;;;;2.83;2.63;;;;;;;17.65;47.70;99555.73;;;;-52
2020/12/10 04:04:02;;;;;;;2.85;2.65;;;;;;;17.65;47.63;99554.19;;;;-51
2020/12/10 04:07:02;;;;;;;2.86;2.66;;;;;;;17.63;47.52;99548.92;;;;-52
2020/12/10 04:10:02;;;;;;;3.10;2.52;;;;;;;17.62;47.71;99546.75;;;;-52
2020/12/10 04:13:02;;;;;;;2.64;2.44;;;;;;;17.62;47.57;99550.07;;;;-52
2020/12/10 04:16:02;;;;;;;2.71;2.51;;;;;;;17.61;47.59;99547.47;;;;-52
2020/12/10 04:19:02;;;;;;;2.83;2.63;;;;;;;17.61;47.54;99545.60;;;;-57
2020/12/10 04:22:02;;;;;;;2.73;2.53;;;;;;;17.60;47.62;99547.45;;;;-57
2020/12/10 04:25:02;;;;;;;2.62;2.42;;;;;;;17.59;47.60;99545.76;;;;-57
2020/12/10 04:28:02;;;;;;;2.93;2.69;;;;;;;17.58;47.72;99547.80;;;;-52
2020/12/10 04:31:02;;;;;;;2.80;2.60;;;;;;;17.56;47.65;99544.39;;;;-52
2020/12/10 04:34:02;;;;;;;2.97;2.68;;;;;;;17.56;47.72;99539.86;;;;-54
2020/12/10 04:37:02;;;;;;;2.85;2.65;;;;;;;17.56;47.55;99530.22;;;;-54
2020/12/10 04:40:02;;;;;;;2.73;2.53;;;;;;;17.56;47.64;99531.59;;;;-54
2020/12/10 04:43:02;;;;;;;2.68;2.48;;;;;;;17.55;47.57;99528.59;;;;-54
2020/12/10 04:46:02;;;;;;;2.80;2.60;;;;;;;17.53;47.57;99531.25;;;;-54
2020/12/10 04:49:02;;;;;;;2.69;2.49;;;;;;;17.53;47.60;99534.34;;;;-54
2020/12/10 04:52:02;;;;;;;2.72;2.52;;;;;;;17.53;47.70;99531.59;;;;-54
2020/12/10 04:55:02;;;;;;;2.65;2.45;;;;;;;17.52;47.61;99523.99;;;;-54
2020/12/10 04:58:02;;;;;;;2.68;2.48;;;;;;;17.51;47.56;99523.64;;;;-54
2020/12/10 05:01:03;;;;;;;2.73;2.53;;;;;;;17.51;47.69;99530.13;;;;-52
2020/12/10 05:04:02;;;;;;;2.75;2.55;;;;;;;17.50;47.63;99527.97;;;;-52
2020/12/10 05:07:02;;;;;;;2.66;2.46;;;;;;;17.49;47.65;99527.23;;;;-52
2020/12/10 05:10:02;;;;;;;2.77;2.57;;;;;;;17.48;47.64;99515.72;;;;-53
2020/12/10 05:13:02;;;;;;;2.71;2.51;;;;;;;17.47;47.71;99507.80;;;;-54
2020/12/10 05:16:02;;;;;;;2.86;2.66;;;;;;;17.46;47.63;99501.88;;;;-54
2020/12/10 05:19:02;;;;;;;2.78;2.58;;;;;;;17.46;47.63;99503.66;;;;-52
2020/12/10 05:22:02;;;;;;;2.74;2.54;;;;;;;17.46;47.63;99510.06;;;;-57
2020/12/10 05:25:02;;;;;;;2.77;2.55;;;;;;;17.45;47.57;99504.94;;;;-54
2020/12/10 05:28:02;;;;;;;2.71;2.51;;;;;;;17.44;47.63;99499.94;;;;-54
2020/12/10 05:31:02;;;;;;;2.96;2.66;;;;;;;17.43;47.56;99493.77;;;;-54
2020/12/10 05:34:02;;;;;;;2.96;2.71;;;;;;;17.44;47.67;99493.22;;;;-52
2020/12/10 05:37:02;;;;;;;2.70;2.50;;;;;;;17.43;47.63;99497.09;;;;-51
2020/12/10 05:40:02;;;;;;;2.93;2.63;;;;;;;17.42;47.65;99499.53;;;;-52
2020/12/10 05:43:02;;;;;;;2.84;2.64;;;;;;;17.41;47.64;99499.70;;;;-52
2020/12/10 05:46:02;;;;;;;2.83;2.63;;;;;;;17.41;47.62;99499.03;;;;-52
2020/12/10 05:49:02;;;;;;;2.85;2.64;;;;;;;17.39;47.53;99501.98;;;;-52
2020/12/10 05:52:02;;;;;;;2.80;2.60;;;;;;;17.39;47.61;99507.40;;;;-52
2020/12/10 05:55:02;;;;;;;2.70;2.50;;;;;;;17.38;47.68;99511.83;;;;-51
2020/12/10 05:58:02;;;;;;;2.87;2.67;;;;;;;17.38;47.60;99510.13;;;;-53
2020/12/10 06:01:02;;;;;;;2.70;2.50;;;;;;;17.38;47.50;99509.90;;;;-57
2020/12/10 06:04:02;;;;;;;2.82;2.62;;;;;;;17.37;47.60;99508.45;;;;-58
2020/12/10 06:07:02;;;;;;;2.79;2.59;;;;;;;17.37;47.60;99506.83;;;;-58
2020/12/10 06:10:02;;;;;;;6.82;3.83;;;;;;;17.39;46.51;99513.85;;;;-52
2020/12/10 06:13:02;;;;;;;8.88;7.98;;;;;;;17.01;43.28;99512.31;;;;-57
2020/12/10 06:16:01;;;;;;;11.38;9.35;;;;;;;16.76;42.63;99507.45;;;;-54
2020/12/10 06:19:02;;;;;;;12.09;10.79;;;;;;;16.56;42.22;99511.06;;;;-52
2020/12/10 06:22:02;;;;;;;12.44;11.15;;;;;;;16.41;42.12;99511.64;;;;-58
2020/12/10 06:25:02;;;;;;;12.95;9.46;;;;;;;16.57;43.44;99515.02;;;;-52
2020/12/10 06:28:02;;;;;;;9.18;8.04;;;;;;;16.68;44.42;99515.69;;;;-52
2020/12/10 06:31:02;;;;;;;8.60;7.43;;;;;;;16.77;44.62;99518.96;;;;-51
2020/12/10 06:34:02;;;;;;;7.92;6.91;;;;;;;16.86;44.87;99528.31;;;;-57
2020/12/10 06:37:02;;;;;;;7.55;6.47;;;;;;;16.92;45.13;99526.21;;;;-57
2020/12/10 06:40:02;;;;;;;7.13;6.37;;;;;;;16.98;45.42;99522.52;;;;-52
2020/12/10 06:43:02;;;;;;;6.53;5.69;;;;;;;17.04;45.60;99523.00;;;;-52
2020/12/10 06:46:02;;;;;;;6.28;5.59;;;;;;;17.10;45.77;99523.95;;;;-57
2020/12/10 06:49:01;;;;;;;5.86;5.25;;;;;;;17.15;45.89;99523.33;;;;-57
2020/12/10 06:52:02;;;;;;;5.50;4.76;;;;;;;17.20;45.91;99525.21;;;;-55
2020/12/10 06:55:02;;;;;;;4.83;4.34;;;;;;;17.25;46.04;99522.28;;;;-52
2020/12/10 06:58:05;;;;;;;4.52;4.12;;;;;;;17.31;46.02;99519.05;;;;-52
2020/12/10 07:01:02;;;;;;;4.42;4.02;;;;;;;17.37;46.06;99522.14;;;;-52
2020/12/10 07:04:02;;;;;;;4.01;3.63;;;;;;;17.42;46.13;99517.18;;;;-52
2020/12/10 07:07:02;;;;;;;4.40;3.95;;;;;;;17.47;46.20;99512.41;;;;-52
2020/12/10 07:10:02;;;;;;;4.82;3.77;;;;;;;17.51;46.38;99511.17;;;;-55
2020/12/10 07:13:02;;;;;;;6.07;3.88;;;;;;;17.56;46.41;99515.72;;;;-55
2020/12/10 07:16:01;;;;;;;3.81;3.51;;;;;;;17.60;46.43;99521.87;;;;-55
2020/12/10 07:19:01;;;;;;;3.89;3.49;;;;;;;17.63;46.49;99521.30;;;;-55
2020/12/10 07:22:02;;;;;;;3.98;3.56;;;;;;;17.66;46.52;99521.87;;;;-52
2020/12/10 07:25:01;;;;;;;3.79;3.49;;;;;;;17.69;46.58;99523.47;;;;-58
2020/12/10 07:28:02;;;;;;;3.70;3.21;;;;;;;17.70;46.56;99519.84;;;;-52
2020/12/10 07:31:02;;;;;;;3.81;3.30;;;;;;;17.72;46.57;99522.41;;;;-52
2020/12/10 07:34:02;;;;;;;6.19;3.45;;;;;;;17.75;46.69;99523.06;;;;-60
2020/12/10 07:37:02;;;;;;;4.17;3.38;;;;;;;17.76;46.66;99522.56;;;;-61
2020/12/10 07:40:01;;;;;;;3.57;3.21;;;;;;;17.78;46.65;99521.75;;;;-60
2020/12/10 07:43:02;;;;;;;3.59;3.01;;;;;;;17.78;46.68;99522.83;;;;-57
2020/12/10 07:46:02;;;;;;;3.41;3.11;;;;;;;17.81;46.73;99526.63;;;;-60
2020/12/10 07:49:02;;;;;;;3.53;3.13;;;;;;;17.82;46.66;99520.77;;;;-57
2020/12/10 07:52:02;;;;;;;3.30;3.00;;;;;;;17.83;46.72;99517.89;;;;-57
2020/12/10 07:55:01;;;;;;;3.51;3.11;;;;;;;17.86;46.73;99517.08;;;;-54
2020/12/10 07:58:02;;;;;;;3.37;3.07;;;;;;;17.88;46.75;99519.98;;;;-56
2020/12/10 08:01:01;;;;;;;3.39;3.09;;;;;;;17.90;46.81;99519.09;;;;-55
2020/12/10 08:04:02;;;;;;;3.32;3.02;;;;;;;17.92;46.82;99525.98;;;;-60
2020/12/10 08:07:02;;;;;;;3.20;2.90;;;;;;;17.95;46.81;99523.28;;;;-56
2020/12/10 08:10:01;;;;;;;4.09;3.03;;;;;;;17.98;46.87;99525.72;;;;-61
2020/12/10 08:13:01;;;;;;;3.24;2.94;;;;;;;18.01;46.87;99529.54;;;;-61
2020/12/10 08:16:01;;;;;;;3.63;2.93;;;;;;;18.04;46.91;99530.00;;;;-57
2020/12/10 08:19:02;;;;;;;3.32;2.95;;;;;;;18.07;46.89;99530.71;;;;-60
2020/12/10 08:22:02;;;;;;;3.68;2.93;;;;;;;18.11;46.78;99528.67;;;;-58
2020/12/10 08:25:01;;;;;;;4.61;2.97;;;;;;;18.14;46.75;99533.30;;;;-58
2020/12/10 08:28:01;;;;;;;3.38;2.90;;;;;;;18.16;46.82;99533.20;;;;-61
2020/12/10 08:31:01;;;;;;;3.18;2.87;;;;;;;18.18;46.83;99532.16;;;;-62
2020/12/10 08:34:02;;;;;;;4.09;2.91;;;;;;;18.22;46.84;99537.23;;;;-62
2020/12/10 08:37:01;;;;;;;3.07;2.77;;;;;;;18.24;46.83;99534.41;;;;-58
2020/12/10 08:40:02;;;;;;;3.09;2.79;;;;;;;18.27;46.82;99537.95;;;;-62
2020/12/10 08:43:01;;;;;;;3.58;3.03;;;;;;;18.30;46.89;99539.09;;;;-53
2020/12/10 08:46:01;;;;;;;7.41;3.02;;;;;;;18.38;46.89;99543.74;;;;-54
2020/12/10 08:49:01;;;;;;;4.51;2.86;;;;;;;18.40;46.98;99543.01;;;;-59
2020/12/10 08:52:02;;;;;;;11.18;3.09;;;;;;;18.43;47.07;99545.19;;;;-61
2020/12/10 08:55:01;;;;;;;7.43;3.26;;;;;;;18.47;47.63;99538.78;;;;-53
2020/12/10 08:58:01;;;;;;;6.33;2.90;;;;;;;18.52;47.21;99534.05;;;;-61
2020/12/10 09:01:03;;;;;;;4.88;2.95;;;;;;;18.56;47.51;99533.71;;;;-62
2020/12/10 09:04:02;;;;;;;6.83;2.97;;;;;;;18.60;47.43;99535.89;;;;-61
2020/12/10 09:07:01;;;;;;;5.48;3.01;;;;;;;18.63;47.58;99536.91;;;;-57
2020/12/10 09:10:04;;;;;;;4.66;2.90;;;;;;;18.66;47.73;99531.64;;;;-52
2020/12/10 09:13:01;;;;;;;4.71;2.71;;;;;;;18.68;47.82;99527.81;;;;-51
2020/12/10 09:16:02;;;;;;;3.46;2.81;;;;;;;18.72;47.80;99533.61;;;;-59
2020/12/10 09:19:01;;;;;;;4.70;2.88;;;;;;;18.75;47.78;99531.23;;;;-59
2020/12/10 09:22:01;;;;;;;2.99;2.59;;;;;;;18.77;47.95;99534.48;;;;-55
2020/12/10 09:25:02;;;;;;;4.42;2.70;;;;;;;18.79;47.84;99527.92;;;;-59
2020/12/10 09:28:02;;;;;;;3.02;2.72;;;;;;;18.82;47.82;99523.27;;;;-61
2020/12/10 09:31:01;;;;;;;4.34;2.89;;;;;;;18.84;47.61;99522.28;;;;-57
2020/12/10 09:34:01;;;;;;;5.87;2.73;;;;;;;18.86;47.61;99525.37;;;;-53
2020/12/10 09:37:01;;;;;;;3.37;2.52;;;;;;;18.88;47.74;99527.08;;;;-55
2020/12/10 09:40:01;;;;;;;4.03;2.84;;;;;;;18.90;47.83;99521.13;;;;-55
2020/12/10 09:43:01;;;;;;;3.86;2.70;;;;;;;18.92;47.66;99528.02;;;;-49
2020/12/10 09:46:04;;;;;;;4.53;2.80;;;;;;;18.94;47.67;99522.63;;;;-52
2020/12/10 09:49:01;;;;;;;3.31;2.73;;;;;;;18.95;47.54;99523.63;;;;-54
2020/12/10 09:52:03;;;;;;;4.36;2.75;;;;;;;18.97;47.51;99528.15;;;;-46
2020/12/10 09:55:08;;;;;;;2.87;2.63;;;;;;;18.98;47.44;99522.19;;;;-50
2020/12/10 09:58:01;;;;;;;3.02;2.50;;;;;;;19.00;47.29;99518.05;;;;-60
2020/12/10 10:01:01;;;;;;;3.08;2.61;;;;;;;19.01;47.44;99511.73;;;;-57
2020/12/10 10:04:01;;;;;;;5.00;3.29;;;;;;;18.94;45.98;99516.15;;;;-59
2020/12/10 10:07:05;;;;;;;7.12;3.28;;;;;;;18.95;46.03;99515.75;;;;-50
2020/12/10 10:10:01;;;;;;;5.04;2.92;;;;;;;18.98;46.19;99514.01;;;;-52
2020/12/10 10:13:01;;;;;;;3.30;3.00;;;;;;;19.01;46.49;99512.45;;;;-52
2020/12/10 10:16:02;;;;;;;3.66;2.72;;;;;;;19.03;46.75;99510.73;;;;-52
2020/12/10 10:19:01;;;;;;;3.47;2.70;;;;;;;19.06;46.82;99513.06;;;;-51
2020/12/10 10:22:01;;;;;;;2.70;2.46;;;;;;;19.11;46.95;99516.75;;;;-56
2020/12/10 10:25:01;;;;;;;3.68;2.67;;;;;;;19.12;47.01;99514.64;;;;-56
2020/12/10 10:28:02;;;;;;;3.13;2.65;;;;;;;19.16;46.93;99513.08;;;;-58
2020/12/10 10:31:01;;;;;;;5.35;2.71;;;;;;;19.18;47.00;99512.16;;;;-60
2020/12/10 10:34:01;;;;;;;6.08;2.61;;;;;;;19.19;47.06;99507.59;;;;-56
2020/12/10 10:37:01;;;;;;;6.62;2.86;;;;;;;19.25;47.18;99505.77;;;;-57
2020/12/10 10:40:01;;;;;;;5.84;2.77;;;;;;;19.25;47.15;99506.73;;;;-54
2020/12/10 10:43:01;;;;;;;3.07;2.63;;;;;;;19.26;47.14;99499.11;;;;-60
2020/12/10 10:46:01;;;;;;;3.79;2.72;;;;;;;19.27;47.12;99502.89;;;;-56
2020/12/10 10:49:01;;;;;;;4.69;2.52;;;;;;;19.31;47.07;99503.20;;;;-58
2020/12/10 10:52:01;;;;;;;4.45;2.65;;;;;;;19.31;46.69;99506.95;;;;-58
2020/12/10 10:55:01;;;;;;;2.91;2.58;;;;;;;19.28;46.62;99507.61;;;;-58
2020/12/10 10:58:01;;;;;;;3.24;2.48;;;;;;;19.28;46.61;99508.34;;;;-57
2020/12/10 11:01:01;;;;;;;3.01;2.41;;;;;;;19.28;46.47;99508.17;;;;-56
2020/12/10 11:04:01;;;;;;;3.65;2.54;;;;;;;19.26;46.55;99507.30;;;;-55
2020/12/10 11:07:01;;;;;;;4.98;2.50;;;;;;;19.26;46.47;99511.30;;;;-56
2020/12/10 11:10:01;;;;;;;2.72;2.48;;;;;;;19.26;46.43;99508.30;;;;-57
2020/12/10 11:13:02;;;;;;;3.45;2.43;;;;;;;19.26;46.40;99510.95;;;;-57
2020/12/10 11:16:01;;;;;;;3.05;2.51;;;;;;;19.26;46.41;99500.50;;;;-58
2020/12/10 11:19:01;;;;;;;2.68;2.41;;;;;;;19.26;46.42;99503.98;;;;-56
2020/12/10 11:22:01;;;;;;;3.91;2.45;;;;;;;19.26;46.31;99500.00;;;;-57
2020/12/10 11:25:01;;;;;;;3.46;2.61;;;;;;;19.28;46.30;99502.81;;;;-57
2020/12/10 11:28:02;;;;;;;3.03;2.47;;;;;;;19.28;46.29;99496.56;;;;-56
2020/12/10 11:31:01;;;;;;;3.09;2.51;;;;;;;19.28;46.33;99498.09;;;;-58
2020/12/10 11:34:01;;;;;;;4.31;2.41;;;;;;;19.27;46.29;99492.91;;;;-56
2020/12/10 11:37:01;;;;;;;2.64;2.43;;;;;;;19.28;46.27;99490.87;;;;-57
2020/12/10 11:40:01;;;;;;;3.66;2.63;;;;;;;19.29;46.30;99489.98;;;;-57
2020/12/10 11:43:01;;;;;;;2.47;2.18;;;;;;;19.29;46.25;99488.83;;;;-56
2020/12/10 11:46:02;;;;;;;3.31;2.23;;;;;;;19.29;46.27;99487.55;;;;-58
2020/12/10 11:49:01;;;;;;;2.86;2.29;;;;;;;19.30;46.30;99486.16;;;;-57
2020/12/10 11:52:01;;;;;;;3.20;2.42;;;;;;;19.32;46.17;99487.98;;;;-57
2020/12/10 11:55:01;;;;;;;2.45;2.21;;;;;;;19.32;46.29;99487.43;;;;-56
2020/12/10 11:58:01;;;;;;;2.60;2.40;;;;;;;19.32;46.26;99484.25;;;;-57
2020/12/10 12:01:01;;;;;;;2.55;2.25;;;;;;;19.33;46.25;99481.27;;;;-57
2020/12/10 12:04:01;;;;;;;3.41;2.48;;;;;;;19.35;46.40;99481.41;;;;-56
2020/12/10 12:07:01;;;;;;;2.25;2.06;;;;;;;19.37;46.67;99479.50;;;;-58
2020/12/10 12:10:01;;;;;;;2.49;2.29;;;;;;;19.39;46.75;99481.77;;;;-59
2020/12/10 12:13:02;;;;;;;2.63;2.43;;;;;;;19.44;46.73;99479.84;;;;-57
2020/12/10 12:16:01;;;;;;;2.49;2.20;;;;;;;19.44;46.80;99482.79;;;;-54
2020/12/10 12:19:02;;;;;;;3.07;2.21;;;;;;;19.44;46.79;99476.43;;;;-54
2020/12/10 12:22:01;;;;;;;3.91;2.17;;;;;;;19.46;46.93;99474.00;;;;-56
2020/12/10 12:25:01;;;;;;;2.59;2.36;;;;;;;19.49;46.95;99472.10;;;;-54
2020/12/10 12:28:01;;;;;;;3.81;2.41;;;;;;;19.50;46.99;99477.35;;;;-64
2020/12/10 12:31:01;;;;;;;2.69;2.29;;;;;;;19.50;46.91;99475.80;;;;-57
2020/12/10 12:34:01;;;;;;;2.47;2.27;;;;;;;19.51;46.85;99473.62;;;;-52
2020/12/10 12:37:01;;;;;;;2.47;2.27;;;;;;;19.53;47.08;99471.48;;;;-48
2020/12/10 12:40:01;;;;;;;2.62;2.42;;;;;;;19.53;47.11;99474.81;;;;-50
2020/12/10 12:43:03;;;;;;;2.61;2.38;;;;;;;19.54;47.08;99474.15;;;;-51
2020/12/10 12:46:01;;;;;;;2.47;2.27;;;;;;;19.55;47.07;99473.40;;;;-60
2020/12/10 12:49:01;;;;;;;2.83;2.41;;;;;;;19.55;47.05;99470.31;;;;-58
2020/12/10 12:52:02;;;;;;;2.41;2.14;;;;;;;19.55;46.98;99465.55;;;;-55
2020/12/10 12:55:01;;;;;;;2.98;2.13;;;;;;;19.55;47.11;99465.55;;;;-58
2020/12/10 12:58:01;;;;;;;2.50;2.30;;;;;;;19.56;47.17;99462.02;;;;-51
2020/12/10 13:01:01;;;;;;;2.57;2.37;;;;;;;19.56;47.17;99461.12;;;;-51
2020/12/10 13:04:01;;;;;;;3.25;2.27;;;;;;;19.56;47.23;99457.23;;;;-51
2020/12/10 13:07:01;;;;;;;2.64;2.34;;;;;;;19.57;47.16;99456.16;;;;-53
2020/12/10 13:10:01;;;;;;;2.55;2.35;;;;;;;19.57;47.19;99453.32;;;;-59
2020/12/10 13:13:01;;;;;;;2.47;2.27;;;;;;;19.58;47.12;99455.49;;;;-61
2020/12/10 13:16:01;;;;;;;2.45;2.25;;;;;;;19.58;47.07;99453.63;;;;-54
2020/12/10 13:19:01;;;;;;;3.64;2.33;;;;;;;19.58;47.17;99448.74;;;;-53
2020/12/10 13:22:01;;;;;;;2.57;2.37;;;;;;;19.60;46.77;99444.11;;;;-59
2020/12/10 13:25:01;;;;;;;2.61;2.23;;;;;;;19.58;46.64;99445.33;;;;-58
2020/12/10 13:28:01;;;;;;;3.32;2.31;;;;;;;19.57;46.50;99448.28;;;;-58
2020/12/10 13:31:01;;;;;;;2.58;2.38;;;;;;;19.57;46.75;99438.45;;;;-53
2020/12/10 13:34:01;;;;;;;3.17;2.37;;;;;;;19.58;46.91;99444.44;;;;-54
2020/12/10 13:37:01;;;;;;;2.55;2.35;;;;;;;19.62;46.90;99444.09;;;;-52
2020/12/10 13:40:01;;;;;;;4.21;2.34;;;;;;;19.63;46.91;99439.27;;;;-51
2020/12/10 13:43:01;;;;;;;2.67;2.47;;;;;;;19.63;46.73;99439.34;;;;-51
2020/12/10 13:46:01;;;;;;;2.49;2.29;;;;;;;19.66;46.76;99443.16;;;;-59
2020/12/10 13:49:01;;;;;;;2.99;2.45;;;;;;;19.68;46.80;99450.92;;;;-49
2020/12/10 13:52:01;;;;;;;10.96;2.57;;;;;;;19.68;46.87;99452.23;;;;-59
2020/12/10 13:55:05;;;;;;;3.67;2.39;;;;;;;19.69;46.73;99449.94;;;;-54
2020/12/10 13:58:01;;;;;;;4.36;2.64;;;;;;;19.70;46.77;99446.06;;;;-60
2020/12/10 14:01:01;;;;;;;4.41;2.61;;;;;;;19.71;46.56;99442.30;;;;-58
2020/12/10 14:04:01;;;;;;;4.55;2.75;;;;;;;19.73;46.66;99444.89;;;;-61
2020/12/10 14:07:02;;;;;;;4.36;2.60;;;;;;;19.75;46.54;99444.86;;;;-59
2020/12/10 14:10:01;;;;;;;3.71;2.68;;;;;;;19.75;46.46;99441.36;;;;-54
2020/12/10 14:13:01;;;;;;;3.19;2.68;;;;;;;19.76;46.44;99436.98;;;;-53
2020/12/10 14:16:01;;;;;;;4.01;2.51;;;;;;;19.75;46.20;99436.25;;;;-59
2020/12/10 14:19:01;;;;;;;4.31;2.65;;;;;;;19.77;46.26;99441.84;;;;-51
2020/12/10 14:22:01;;;;;;;2.99;2.61;;;;;;;19.77;46.32;99438.09;;;;-46
2020/12/10 14:25:01;;;;;;;3.33;2.74;;;;;;;19.78;46.32;99434.36;;;;-49
2020/12/10 14:28:01;;;;;;;2.92;2.62;;;;;;;19.77;46.34;99431.98;;;;-51
2020/12/10 14:31:02;;;;;;;3.07;2.58;;;;;;;19.79;46.37;99435.05;;;;-50
2020/12/10 14:34:02;;;;;;;2.75;2.50;;;;;;;19.79;46.41;99436.52;;;;-56
2020/12/10 14:37:01;;;;;;;3.65;2.54;;;;;;;19.81;46.52;99439.28;;;;-50
2020/12/10 14:40:01;;;;;;;2.82;2.57;;;;;;;19.81;46.37;99443.81;;;;-51
2020/12/10 14:43:01;;;;;;;2.98;2.70;;;;;;;19.80;46.28;99443.77;;;;-59
2020/12/10 14:46:01;;;;;;;5.10;2.99;;;;;;;19.74;45.06;99438.15;;;;-58
2020/12/10 14:49:01;;;;;;;6.81;3.73;;;;;;;19.65;44.16;99438.35;;;;-53
2020/12/10 14:52:02;;;;;;;7.77;3.53;;;;;;;19.61;44.67;99436.53;;;;-52
2020/12/10 14:55:02;;;;;;;5.09;3.43;;;;;;;19.60;44.63;99438.91;;;;-52
2020/12/10 14:58:01;;;;;;;7.09;3.22;;;;;;;19.61;44.80;99438.57;;;;-52
2020/12/10 15:01:01;;;;;;;4.92;3.00;;;;;;;19.62;44.98;99439.28;;;;-52
2020/12/10 15:04:01;;;;;;;3.35;3.01;;;;;;;19.62;44.93;99440.82;;;;-53
2020/12/10 15:07:01;;;;;;;3.99;2.87;;;;;;;19.62;45.02;99445.06;;;;-54
2020/12/10 15:10:01;;;;;;;3.73;2.88;;;;;;;19.63;45.02;99441.71;;;;-54
2020/12/10 15:13:01;;;;;;;3.21;2.81;;;;;;;19.62;45.13;99442.95;;;;-52
2020/12/10 15:16:01;;;;;;;3.53;2.78;;;;;;;19.63;45.20;99443.98;;;;-52
2020/12/10 15:19:01;;;;;;;3.61;2.80;;;;;;;19.61;45.21;99442.64;;;;-52
2020/12/10 15:22:01;;;;;;;3.96;3.02;;;;;;;19.64;45.69;99445.05;;;;-55
2020/12/10 15:25:01;;;;;;;2.91;2.53;;;;;;;19.68;45.89;99446.70;;;;-51
2020/12/10 15:28:01;;;;;;;2.97;2.64;;;;;;;19.70;45.87;99444.43;;;;-52
2020/12/10 15:31:01;;;;;;;4.77;2.65;;;;;;;19.73;45.98;99444.23;;;;-51
2020/12/10 15:34:01;;;;;;;2.87;2.64;;;;;;;19.76;45.99;99444.80;;;;-51
2020/12/10 15:37:01;;;;;;;4.59;2.61;;;;;;;19.78;46.20;99444.67;;;;-57
2020/12/10 15:40:01;;;;;;;3.74;2.73;;;;;;;19.80;46.14;99440.76;;;;-57
2020/12/10 15:43:01;;;;;;;4.38;2.59;;;;;;;19.82;46.25;99440.88;;;;-50
2020/12/10 15:46:02;;;;;;;3.17;2.67;;;;;;;19.82;46.24;99444.22;;;;-55
2020/12/10 15:49:01;;;;;;;2.57;2.37;;;;;;;19.85;46.42;99444.67;;;;-50
2020/12/10 15:52:01;;;;;;;2.93;2.60;;;;;;;19.87;46.43;99444.33;;;;-60
2020/12/10 15:55:01;;;;;;;2.66;2.45;;;;;;;19.88;46.55;99453.44;;;;-55
2020/12/10 15:58:01;;;;;;;3.62;2.60;;;;;;;19.89;46.54;99453.08;;;;-53
2020/12/10 16:01:01;;;;;;;5.75;2.64;;;;;;;19.91;46.50;99455.01;;;;-63
2020/12/10 16:04:01;;;;;;;3.07;2.47;;;;;;;19.91;46.47;99452.57;;;;-51
2020/12/10 16:07:01;;;;;;;3.21;2.57;;;;;;;19.88;46.20;99445.80;;;;-51
2020/12/10 16:10:01;;;;;;;4.06;2.54;;;;;;;19.89;46.35;99446.98;;;;-54
2020/12/10 16:13:01;;;;;;;3.84;2.50;;;;;;;19.90;46.40;99448.28;;;;-57
2020/12/10 16:16:01;;;;;;;4.75;2.61;;;;;;;19.91;46.43;99450.70;;;;-58
2020/12/10 16:19:01;;;;;;;4.20;2.59;;;;;;;19.92;46.56;99454.33;;;;-53
2020/12/10 16:22:01;;;;;;;2.83;2.50;;;;;;;19.93;46.56;99457.77;;;;-54
2020/12/10 16:25:01;;;;;;;3.23;2.59;;;;;;;19.93;46.71;99456.28;;;;-59
2020/12/10 16:28:01;;;;;;;2.53;2.33;;;;;;;19.94;46.71;99458.80;;;;-54
2020/12/10 16:31:01;;;;;;;5.76;3.03;;;;;;;19.89;46.51;99462.02;;;;-50
2020/12/10 16:34:01;;;;;;;3.86;3.27;;;;;;;19.86;45.91;99463.27;;;;-50
2020/12/10 16:37:01;;;;;;;3.53;3.04;;;;;;;19.84;45.70;99458.84;;;;-53
2020/12/10 16:40:02;;;;;;;9.55;3.35;;;;;;;19.83;45.92;99459.58;;;;-49
2020/12/10 16:43:01;;;;;;;4.33;3.15;;;;;;;19.83;45.69;99461.52;;;;-53
2020/12/10 16:46:01;;;;;;;8.59;3.35;;;;;;;19.85;46.19;99462.22;;;;-54
2020/12/10 16:49:01;;;;;;;8.38;3.25;;;;;;;19.88;46.18;99463.34;;;;-47
2020/12/10 16:52:02;;;;;;;10.67;3.41;;;;;;;19.91;46.37;99462.73;;;;-47
2020/12/10 16:55:01;;;;;;;5.49;3.15;;;;;;;19.92;46.11;99465.64;;;;-50